sensor_id;sensor_type;location;lat;lon;timestamp;temperature;humidity
14749;DHT22;7466;53.574;9.976;2023-02-26T00:00:09;-0.90;99.90
14749;DHT22;7466;53.574;9.976;2023-02-26T00:02:39;-1.00;99.90
14749;DHT22;7466;53.574;9.976;2023-02-26T00:05:07;-0.80;99.90
14749;DHT22;7466;53.574;9.976;2023-02-26T00:07:35;-0.80;99.90
14749;DHT22;7466;53.574;9.976;2023-02-26T00:10:03;-0.80;99.90
14749;DHT22;7466;53.574;9.976;2023-02-26T00:12:31;-0.80;99.90
14749;DHT22;7466;53.574;9.976;2023-02-26T00:15:00;-0.80;99.90
14749;DHT22;7466;53.574;9.976;2023-02-26T00:17:36;-1.00;99.90
14749;DHT22;7466;53.574;9.976;2023-02-26T00:20:07;-1.00;99.90
14749;DHT22;7466;53.574;9.976;2023-02-26T00:22:36;-1.00;99.90
14749;DHT22;7466;53.574;9.976;2023-02-26T00:25:04;-0.90;99.90
14749;DHT22;7466;53.574;9.976;2023-02-26T00:27:31;-0.80;99.90
14749;DHT22;7466;53.574;9.976;2023-02-26T00:30:00;-0.90;99.90
14749;DHT22;7466;53.574;9.976;2023-02-26T00:32:28;-1.00;99.90
14749;DHT22;7466;53.574;9.976;2023-02-26T00:34:55;-1.10;99.90
14749;DHT22;7466;53.574;9.976;2023-02-26T00:37:30;-1.00;99.90
14749;DHT22;7466;53.574;9.976;2023-02-26T00:40:13;-0.90;99.90
14749;DHT22;7466;53.574;9.976;2023-02-26T00:42:47;-1.10;99.90
14749;DHT22;7466;53.574;9.976;2023-02-26T00:45:16;-1.10;99.90
14749;DHT22;7466;53.574;9.976;2023-02-26T00:47:49;-1.10;99.90
14749;DHT22;7466;53.574;9.976;2023-02-26T00:50:19;-1.00;99.90
14749;DHT22;7466;53.574;9.976;2023-02-26T00:53:01;-1.10;99.90
14749;DHT22;7466;53.574;9.976;2023-02-26T00:55:29;-1.00;99.90
14749;DHT22;7466;53.574;9.976;2023-02-26T00:57:56;-1.00;99.90
14749;DHT22;7466;53.574;9.976;2023-02-26T01:00:25;-1.30;99.90
14749;DHT22;7466;53.574;9.976;2023-02-26T01:02:52;-1.20;99.90
14749;DHT22;7466;53.574;9.976;2023-02-26T01:05:21;-1.00;99.90
14749;DHT22;7466;53.574;9.976;2023-02-26T01:07:54;-1.30;99.90
14749;DHT22;7466;53.574;9.976;2023-02-26T01:10:25;-1.10;99.90
14749;DHT22;7466;53.574;9.976;2023-02-26T01:12:53;-1.00;99.90
14749;DHT22;7466;53.574;9.976;2023-02-26T01:15:22;-0.90;99.90
14749;DHT22;7466;53.574;9.976;2023-02-26T01:17:53;-0.80;99.90
14749;DHT22;7466;53.574;9.976;2023-02-26T01:20:24;-0.90;99.90
14749;DHT22;7466;53.574;9.976;2023-02-26T01:22:54;-0.70;99.90
14749;DHT22;7466;53.574;9.976;2023-02-26T01:25:26;-0.80;99.90
14749;DHT22;7466;53.574;9.976;2023-02-26T01:27:54;-0.70;99.90
14749;DHT22;7466;53.574;9.976;2023-02-26T01:30:23;-0.60;99.90
14749;DHT22;7466;53.574;9.976;2023-02-26T01:32:57;-0.70;99.90
14749;DHT22;7466;53.574;9.976;2023-02-26T01:35:36;-0.40;99.90
14749;DHT22;7466;53.574;9.976;2023-02-26T01:38:14;-0.50;99.90
14749;DHT22;7466;53.574;9.976;2023-02-26T01:41:19;-0.40;99.90
14749;DHT22;7466;53.574;9.976;2023-02-26T01:43:56;-0.50;99.90
14749;DHT22;7466;53.574;9.976;2023-02-26T01:46:30;-0.40;99.90
14749;DHT22;7466;53.574;9.976;2023-02-26T01:49:07;-0.40;99.90
14749;DHT22;7466;53.574;9.976;2023-02-26T01:51:43;-0.50;99.90
14749;DHT22;7466;53.574;9.976;2023-02-26T01:54:10;-0.30;99.90
14749;DHT22;7466;53.574;9.976;2023-02-26T01:56:38;-0.40;99.90
14749;DHT22;7466;53.574;9.976;2023-02-26T01:59:07;-0.30;99.90
14749;DHT22;7466;53.574;9.976;2023-02-26T02:01:36;-0.40;99.90
14749;DHT22;7466;53.574;9.976;2023-02-26T02:04:09;-0.50;99.90
14749;DHT22;7466;53.574;9.976;2023-02-26T02:06:37;-0.50;99.90
14749;DHT22;7466;53.574;9.976;2023-02-26T02:09:05;-0.50;99.90
14749;DHT22;7466;53.574;9.976;2023-02-26T02:11:32;-0.70;99.90
14749;DHT22;7466;53.574;9.976;2023-02-26T02:14:07;-0.70;99.90
14749;DHT22;7466;53.574;9.976;2023-02-26T02:16:45;-0.80;99.90
14749;DHT22;7466;53.574;9.976;2023-02-26T02:22:35;-0.90;99.90
14749;DHT22;7466;53.574;9.976;2023-02-26T02:25:19;-0.90;99.90
14749;DHT22;7466;53.574;9.976;2023-02-26T02:27:54;-0.80;99.90
14749;DHT22;7466;53.574;9.976;2023-02-26T02:30:34;-0.90;99.90
14749;DHT22;7466;53.574;9.976;2023-02-26T02:33:09;-0.90;99.90
14749;DHT22;7466;53.574;9.976;2023-02-26T02:35:41;-1.10;99.90
14749;DHT22;7466;53.574;9.976;2023-02-26T02:38:13;-1.00;99.90
14749;DHT22;7466;53.574;9.976;2023-02-26T02:40:45;-1.00;99.90
14749;DHT22;7466;53.574;9.976;2023-02-26T02:43:16;-1.10;99.90
14749;DHT22;7466;53.574;9.976;2023-02-26T02:45:46;-1.20;99.90
14749;DHT22;7466;53.574;9.976;2023-02-26T02:48:20;-1.20;99.90
14749;DHT22;7466;53.574;9.976;2023-02-26T02:50:54;-1.20;99.90
14749;DHT22;7466;53.574;9.976;2023-02-26T02:53:25;-1.40;99.90
14749;DHT22;7466;53.574;9.976;2023-02-26T02:55:55;-1.20;99.90
14749;DHT22;7466;53.574;9.976;2023-02-26T02:58:27;-1.30;99.90
14749;DHT22;7466;53.574;9.976;2023-02-26T03:01:00;-1.20;99.90
14749;DHT22;7466;53.574;9.976;2023-02-26T03:03:32;-1.30;99.90
14749;DHT22;7466;53.574;9.976;2023-02-26T03:05:59;-1.40;99.90
14749;DHT22;7466;53.574;9.976;2023-02-26T03:08:29;-1.40;99.90
14749;DHT22;7466;53.574;9.976;2023-02-26T03:10:56;-1.50;99.90
14749;DHT22;7466;53.574;9.976;2023-02-26T03:13:24;-1.40;99.90
14749;DHT22;7466;53.574;9.976;2023-02-26T03:16:00;-1.50;99.90
14749;DHT22;7466;53.574;9.976;2023-02-26T03:18:44;-1.40;99.90
14749;DHT22;7466;53.574;9.976;2023-02-26T03:21:20;-1.50;99.90
14749;DHT22;7466;53.574;9.976;2023-02-26T03:23:56;-1.40;99.90
14749;DHT22;7466;53.574;9.976;2023-02-26T03:26:29;-1.40;99.90
14749;DHT22;7466;53.574;9.976;2023-02-26T03:29:03;-1.40;99.90
14749;DHT22;7466;53.574;9.976;2023-02-26T03:31:34;-1.60;99.90
14749;DHT22;7466;53.574;9.976;2023-02-26T03:34:08;-1.50;99.90
14749;DHT22;7466;53.574;9.976;2023-02-26T03:36:44;-1.40;99.90
14749;DHT22;7466;53.574;9.976;2023-02-26T03:39:15;-1.50;99.90
14749;DHT22;7466;53.574;9.976;2023-02-26T03:41:47;-1.40;99.90
14749;DHT22;7466;53.574;9.976;2023-02-26T03:44:22;-1.50;99.90
14749;DHT22;7466;53.574;9.976;2023-02-26T03:46:54;-1.60;99.90
14749;DHT22;7466;53.574;9.976;2023-02-26T03:49:26;-1.60;99.90
14749;DHT22;7466;53.574;9.976;2023-02-26T03:51:53;-1.70;99.90
14749;DHT22;7466;53.574;9.976;2023-02-26T03:54:24;-1.60;99.90
14749;DHT22;7466;53.574;9.976;2023-02-26T03:56:52;-1.70;99.90
14749;DHT22;7466;53.574;9.976;2023-02-26T03:59:19;-1.40;99.90
14749;DHT22;7466;53.574;9.976;2023-02-26T04:01:50;-1.60;99.90
14749;DHT22;7466;53.574;9.976;2023-02-26T04:04:24;-1.60;99.90
14749;DHT22;7466;53.574;9.976;2023-02-26T04:06:52;-1.70;99.90
14749;DHT22;7466;53.574;9.976;2023-02-26T04:09:20;-1.70;99.90
14749;DHT22;7466;53.574;9.976;2023-02-26T04:11:49;-1.50;99.90
14749;DHT22;7466;53.574;9.976;2023-02-26T04:14:16;-1.70;99.90
14749;DHT22;7466;53.574;9.976;2023-02-26T04:16:44;-1.70;99.90
14749;DHT22;7466;53.574;9.976;2023-02-26T04:19:11;-1.80;99.90
14749;DHT22;7466;53.574;9.976;2023-02-26T04:21:40;-1.70;99.90
14749;DHT22;7466;53.574;9.976;2023-02-26T04:24:06;-1.90;99.90
14749;DHT22;7466;53.574;9.976;2023-02-26T04:26:33;-1.80;99.90
14749;DHT22;7466;53.574;9.976;2023-02-26T04:29:00;-1.80;99.90
14749;DHT22;7466;53.574;9.976;2023-02-26T04:31:27;-1.80;99.90
14749;DHT22;7466;53.574;9.976;2023-02-26T04:33:54;-1.70;99.90
14749;DHT22;7466;53.574;9.976;2023-02-26T04:36:21;-1.80;99.90
14749;DHT22;7466;53.574;9.976;2023-02-26T04:38:49;-1.80;99.90
14749;DHT22;7466;53.574;9.976;2023-02-26T04:41:16;-1.70;99.90
14749;DHT22;7466;53.574;9.976;2023-02-26T04:43:42;-1.80;99.90
14749;DHT22;7466;53.574;9.976;2023-02-26T04:46:09;-1.90;99.90
14749;DHT22;7466;53.574;9.976;2023-02-26T04:48:36;-1.90;99.90
14749;DHT22;7466;53.574;9.976;2023-02-26T04:51:03;-1.90;99.90
14749;DHT22;7466;53.574;9.976;2023-02-26T04:53:30;-1.80;99.90
14749;DHT22;7466;53.574;9.976;2023-02-26T04:55:58;-1.80;99.90
14749;DHT22;7466;53.574;9.976;2023-02-26T04:58:25;-1.90;99.90
14749;DHT22;7466;53.574;9.976;2023-02-26T05:00:52;-1.70;99.90
14749;DHT22;7466;53.574;9.976;2023-02-26T05:03:21;-1.70;99.90
14749;DHT22;7466;53.574;9.976;2023-02-26T05:05:48;-1.90;99.90
14749;DHT22;7466;53.574;9.976;2023-02-26T05:08:14;-1.70;99.90
14749;DHT22;7466;53.574;9.976;2023-02-26T05:10:41;-1.80;99.90
14749;DHT22;7466;53.574;9.976;2023-02-26T05:13:10;-1.90;99.90
14749;DHT22;7466;53.574;9.976;2023-02-26T05:15:36;-1.80;99.90
14749;DHT22;7466;53.574;9.976;2023-02-26T05:18:03;-2.00;99.90
14749;DHT22;7466;53.574;9.976;2023-02-26T05:20:30;-2.10;99.90
14749;DHT22;7466;53.574;9.976;2023-02-26T05:22:57;-2.00;99.90
14749;DHT22;7466;53.574;9.976;2023-02-26T05:25:24;-2.00;99.90
14749;DHT22;7466;53.574;9.976;2023-02-26T05:27:50;-2.00;99.90
14749;DHT22;7466;53.574;9.976;2023-02-26T05:30:19;-1.80;99.90
14749;DHT22;7466;53.574;9.976;2023-02-26T05:32:46;-2.00;99.90
14749;DHT22;7466;53.574;9.976;2023-02-26T05:35:13;-2.00;99.90
14749;DHT22;7466;53.574;9.976;2023-02-26T05:37:40;-2.00;99.90
14749;DHT22;7466;53.574;9.976;2023-02-26T05:40:09;-1.90;99.90
14749;DHT22;7466;53.574;9.976;2023-02-26T05:42:43;-1.90;99.90
14749;DHT22;7466;53.574;9.976;2023-02-26T05:45:10;-2.00;99.90
14749;DHT22;7466;53.574;9.976;2023-02-26T05:47:38;-2.10;99.90
14749;DHT22;7466;53.574;9.976;2023-02-26T05:50:06;-2.10;99.90
14749;DHT22;7466;53.574;9.976;2023-02-26T05:52:33;-2.10;99.90
14749;DHT22;7466;53.574;9.976;2023-02-26T05:55:00;-2.20;99.90
14749;DHT22;7466;53.574;9.976;2023-02-26T05:57:33;-2.00;99.90
14749;DHT22;7466;53.574;9.976;2023-02-26T06:00:00;-2.10;99.90
14749;DHT22;7466;53.574;9.976;2023-02-26T06:02:33;-2.10;99.90
14749;DHT22;7466;53.574;9.976;2023-02-26T06:05:01;-2.10;99.90
14749;DHT22;7466;53.574;9.976;2023-02-26T06:07:29;-2.10;99.90
14749;DHT22;7466;53.574;9.976;2023-02-26T06:09:56;-2.20;99.90
14749;DHT22;7466;53.574;9.976;2023-02-26T06:12:23;-2.20;99.90
14749;DHT22;7466;53.574;9.976;2023-02-26T06:14:59;-2.20;99.90
14749;DHT22;7466;53.574;9.976;2023-02-26T06:17:27;-2.20;99.90
14749;DHT22;7466;53.574;9.976;2023-02-26T06:19:54;-2.30;99.90
14749;DHT22;7466;53.574;9.976;2023-02-26T06:22:22;-2.10;99.90
14749;DHT22;7466;53.574;9.976;2023-02-26T06:24:49;-2.30;99.90
14749;DHT22;7466;53.574;9.976;2023-02-26T06:27:16;-2.20;99.90
14749;DHT22;7466;53.574;9.976;2023-02-26T06:29:43;-2.10;99.90
14749;DHT22;7466;53.574;9.976;2023-02-26T06:32:10;-2.10;99.90
14749;DHT22;7466;53.574;9.976;2023-02-26T06:34:37;-2.30;99.90
14749;DHT22;7466;53.574;9.976;2023-02-26T06:37:04;-2.20;99.90
14749;DHT22;7466;53.574;9.976;2023-02-26T06:39:33;-2.20;99.90
14749;DHT22;7466;53.574;9.976;2023-02-26T06:42:00;-2.10;99.90
14749;DHT22;7466;53.574;9.976;2023-02-26T06:44:27;-2.20;99.90
14749;DHT22;7466;53.574;9.976;2023-02-26T06:46:54;-2.10;99.90
14749;DHT22;7466;53.574;9.976;2023-02-26T06:49:20;-2.20;99.90
14749;DHT22;7466;53.574;9.976;2023-02-26T06:51:47;-1.90;99.90
14749;DHT22;7466;53.574;9.976;2023-02-26T06:54:14;-2.10;99.90
14749;DHT22;7466;53.574;9.976;2023-02-26T06:56:42;-1.90;99.90
14749;DHT22;7466;53.574;9.976;2023-02-26T06:59:09;-1.80;99.90
14749;DHT22;7466;53.574;9.976;2023-02-26T07:01:36;-1.70;99.90
14749;DHT22;7466;53.574;9.976;2023-02-26T07:04:04;-1.60;99.90
14749;DHT22;7466;53.574;9.976;2023-02-26T07:06:31;-1.40;99.90
14749;DHT22;7466;53.574;9.976;2023-02-26T07:08:58;-1.20;99.90
14749;DHT22;7466;53.574;9.976;2023-02-26T07:11:25;-1.10;99.90
14749;DHT22;7466;53.574;9.976;2023-02-26T07:13:53;-1.00;99.90
14749;DHT22;7466;53.574;9.976;2023-02-26T07:16:20;-1.00;99.90
14749;DHT22;7466;53.574;9.976;2023-02-26T07:18:47;-1.00;99.90
14749;DHT22;7466;53.574;9.976;2023-02-26T07:21:14;-0.90;99.90
14749;DHT22;7466;53.574;9.976;2023-02-26T07:23:41;-0.90;99.90
14749;DHT22;7466;53.574;9.976;2023-02-26T07:26:08;-0.90;99.90
14749;DHT22;7466;53.574;9.976;2023-02-26T07:28:35;-0.90;99.90
14749;DHT22;7466;53.574;9.976;2023-02-26T07:31:05;-0.90;99.90
14749;DHT22;7466;53.574;9.976;2023-02-26T07:33:33;-0.90;99.90
14749;DHT22;7466;53.574;9.976;2023-02-26T07:36:00;-0.90;99.90
14749;DHT22;7466;53.574;9.976;2023-02-26T07:38:27;-1.00;99.90
14749;DHT22;7466;53.574;9.976;2023-02-26T07:40:54;-1.00;99.90
14749;DHT22;7466;53.574;9.976;2023-02-26T07:43:21;-1.00;99.90
14749;DHT22;7466;53.574;9.976;2023-02-26T07:45:49;-1.10;99.90
14749;DHT22;7466;53.574;9.976;2023-02-26T07:48:17;-1.00;99.90
14749;DHT22;7466;53.574;9.976;2023-02-26T07:50:51;-1.00;99.90
14749;DHT22;7466;53.574;9.976;2023-02-26T07:53:18;-1.00;99.90
14749;DHT22;7466;53.574;9.976;2023-02-26T07:55:46;-0.90;99.90
14749;DHT22;7466;53.574;9.976;2023-02-26T07:58:12;-0.70;99.90
14749;DHT22;7466;53.574;9.976;2023-02-26T08:00:41;-0.60;99.90
14749;DHT22;7466;53.574;9.976;2023-02-26T08:03:08;-0.50;99.90
14749;DHT22;7466;53.574;9.976;2023-02-26T08:05:36;-0.50;99.90
14749;DHT22;7466;53.574;9.976;2023-02-26T08:08:03;-0.40;99.90
14749;DHT22;7466;53.574;9.976;2023-02-26T08:10:30;-0.30;99.90
14749;DHT22;7466;53.574;9.976;2023-02-26T08:12:57;-0.30;99.90
14749;DHT22;7466;53.574;9.976;2023-02-26T08:15:24;-0.10;99.90
14749;DHT22;7466;53.574;9.976;2023-02-26T08:17:52;0.00;99.90
14749;DHT22;7466;53.574;9.976;2023-02-26T08:20:19;0.10;99.90
14749;DHT22;7466;53.574;9.976;2023-02-26T08:22:49;0.20;99.90
14749;DHT22;7466;53.574;9.976;2023-02-26T08:25:16;0.30;99.90
14749;DHT22;7466;53.574;9.976;2023-02-26T08:27:43;0.50;99.90
14749;DHT22;7466;53.574;9.976;2023-02-26T08:30:11;0.60;99.90
14749;DHT22;7466;53.574;9.976;2023-02-26T08:32:38;0.50;91.70
14749;DHT22;7466;53.574;9.976;2023-02-26T08:35:07;0.60;92.20
14749;DHT22;7466;53.574;9.976;2023-02-26T08:37:34;0.50;90.70
14749;DHT22;7466;53.574;9.976;2023-02-26T08:40:02;0.70;91.80
14749;DHT22;7466;53.574;9.976;2023-02-26T08:42:29;0.80;83.60
14749;DHT22;7466;53.574;9.976;2023-02-26T08:44:56;1.10;93.20
14749;DHT22;7466;53.574;9.976;2023-02-26T08:47:23;1.20;60.40
14749;DHT22;7466;53.574;9.976;2023-02-26T08:49:50;1.50;53.70
14749;DHT22;7466;53.574;9.976;2023-02-26T08:52:17;2.10;74.30
14749;DHT22;7466;53.574;9.976;2023-02-26T08:54:44;2.20;15.60
14749;DHT22;7466;53.574;9.976;2023-02-26T08:57:12;2.60;19.90
14749;DHT22;7466;53.574;9.976;2023-02-26T08:59:39;2.60;1.00
14749;DHT22;7466;53.574;9.976;2023-02-26T09:02:06;2.70;1.00
14749;DHT22;7466;53.574;9.976;2023-02-26T09:04:35;2.90;1.00
14749;DHT22;7466;53.574;9.976;2023-02-26T09:07:02;2.70;1.00
14749;DHT22;7466;53.574;9.976;2023-02-26T09:09:30;2.80;1.00
14749;DHT22;7466;53.574;9.976;2023-02-26T09:11:57;3.20;1.00
14749;DHT22;7466;53.574;9.976;2023-02-26T09:14:26;3.30;1.00
14749;DHT22;7466;53.574;9.976;2023-02-26T09:16:54;4.00;1.00
14749;DHT22;7466;53.574;9.976;2023-02-26T09:19:21;4.20;1.00
14749;DHT22;7466;53.574;9.976;2023-02-26T09:21:54;4.00;1.00
14749;DHT22;7466;53.574;9.976;2023-02-26T09:24:25;3.40;1.00
14749;DHT22;7466;53.574;9.976;2023-02-26T09:26:52;3.60;1.00
14749;DHT22;7466;53.574;9.976;2023-02-26T09:29:21;4.00;1.00
14749;DHT22;7466;53.574;9.976;2023-02-26T09:31:49;4.40;1.00
14749;DHT22;7466;53.574;9.976;2023-02-26T09:34:16;4.80;1.00
14749;DHT22;7466;53.574;9.976;2023-02-26T09:36:43;4.10;1.00
14749;DHT22;7466;53.574;9.976;2023-02-26T09:39:11;4.30;1.00
14749;DHT22;7466;53.574;9.976;2023-02-26T09:41:57;4.10;1.00
14749;DHT22;7466;53.574;9.976;2023-02-26T09:44:27;4.50;1.00
14749;DHT22;7466;53.574;9.976;2023-02-26T09:47:01;4.10;1.00
14749;DHT22;7466;53.574;9.976;2023-02-26T09:49:44;4.20;1.00
14749;DHT22;7466;53.574;9.976;2023-02-26T09:52:19;3.90;1.00
14749;DHT22;7466;53.574;9.976;2023-02-26T09:54:49;4.10;1.00
14749;DHT22;7466;53.574;9.976;2023-02-26T09:57:26;4.10;1.00
14749;DHT22;7466;53.574;9.976;2023-02-26T09:59:53;4.40;1.00
14749;DHT22;7466;53.574;9.976;2023-02-26T10:02:26;4.20;1.00
14749;DHT22;7466;53.574;9.976;2023-02-26T10:05:07;4.30;1.00
14749;DHT22;7466;53.574;9.976;2023-02-26T10:07:41;4.10;1.00
14749;DHT22;7466;53.574;9.976;2023-02-26T10:10:17;4.00;1.00
14749;DHT22;7466;53.574;9.976;2023-02-26T10:12:48;3.50;1.00
14749;DHT22;7466;53.574;9.976;2023-02-26T10:15:23;3.60;1.00
14749;DHT22;7466;53.574;9.976;2023-02-26T10:18:05;3.00;1.00
14749;DHT22;7466;53.574;9.976;2023-02-26T10:20:38;2.80;1.00
14749;DHT22;7466;53.574;9.976;2023-02-26T10:23:15;2.80;1.00
14749;DHT22;7466;53.574;9.976;2023-02-26T10:25:47;2.90;1.00
14749;DHT22;7466;53.574;9.976;2023-02-26T10:28:38;2.80;1.00
14749;DHT22;7466;53.574;9.976;2023-02-26T10:31:12;2.90;1.00
14749;DHT22;7466;53.574;9.976;2023-02-26T10:36:21;3.20;1.00
14749;DHT22;7466;53.574;9.976;2023-02-26T10:38:53;3.20;1.00
14749;DHT22;7466;53.574;9.976;2023-02-26T10:41:24;3.40;1.00
14749;DHT22;7466;53.574;9.976;2023-02-26T10:43:58;3.60;1.00
14749;DHT22;7466;53.574;9.976;2023-02-26T10:46:41;3.80;1.00
14749;DHT22;7466;53.574;9.976;2023-02-26T10:49:31;4.00;1.00
14749;DHT22;7466;53.574;9.976;2023-02-26T10:52:11;3.70;1.00
14749;DHT22;7466;53.574;9.976;2023-02-26T10:54:43;4.10;1.00
14749;DHT22;7466;53.574;9.976;2023-02-26T10:57:22;4.50;1.00
14749;DHT22;7466;53.574;9.976;2023-02-26T10:59:49;4.30;1.00
14749;DHT22;7466;53.574;9.976;2023-02-26T11:02:33;4.70;1.00
14749;DHT22;7466;53.574;9.976;2023-02-26T11:05:03;5.10;1.00
14749;DHT22;7466;53.574;9.976;2023-02-26T11:07:31;5.60;99.90
14749;DHT22;7466;53.574;9.976;2023-02-26T11:09:59;5.90;1.00
14749;DHT22;7466;53.574;9.976;2023-02-26T11:12:26;5.60;99.90
14749;DHT22;7466;53.574;9.976;2023-02-26T11:14:53;5.70;1.00
14749;DHT22;7466;53.574;9.976;2023-02-26T11:17:22;5.60;1.00
14749;DHT22;7466;53.574;9.976;2023-02-26T11:19:55;5.50;1.00
14749;DHT22;7466;53.574;9.976;2023-02-26T11:22:28;5.30;1.00
14749;DHT22;7466;53.574;9.976;2023-02-26T11:24:58;5.00;99.90
14749;DHT22;7466;53.574;9.976;2023-02-26T11:27:29;5.40;1.00
14749;DHT22;7466;53.574;9.976;2023-02-26T11:29:58;5.00;1.00
14749;DHT22;7466;53.574;9.976;2023-02-26T11:32:30;5.10;1.00
14749;DHT22;7466;53.574;9.976;2023-02-26T11:34:57;4.80;1.00
14749;DHT22;7466;53.574;9.976;2023-02-26T11:37:28;5.40;1.00
14749;DHT22;7466;53.574;9.976;2023-02-26T11:39:57;5.60;99.90
14749;DHT22;7466;53.574;9.976;2023-02-26T11:42:35;5.50;1.00
14749;DHT22;7466;53.574;9.976;2023-02-26T11:45:04;5.60;1.00
14749;DHT22;7466;53.574;9.976;2023-02-26T11:47:33;5.30;1.00
14749;DHT22;7466;53.574;9.976;2023-02-26T11:50:02;5.20;1.00
14749;DHT22;7466;53.574;9.976;2023-02-26T11:52:34;4.50;1.00
14749;DHT22;7466;53.574;9.976;2023-02-26T11:55:05;4.30;1.00
14749;DHT22;7466;53.574;9.976;2023-02-26T11:57:32;4.10;1.00
14749;DHT22;7466;53.574;9.976;2023-02-26T12:00:02;3.90;1.00
14749;DHT22;7466;53.574;9.976;2023-02-26T12:02:42;4.00;1.00
14749;DHT22;7466;53.574;9.976;2023-02-26T12:05:13;3.70;1.00
14749;DHT22;7466;53.574;9.976;2023-02-26T12:07:50;3.70;1.00
14749;DHT22;7466;53.574;9.976;2023-02-26T12:10:37;3.90;1.00
14749;DHT22;7466;53.574;9.976;2023-02-26T12:13:13;4.00;1.00
14749;DHT22;7466;53.574;9.976;2023-02-26T12:15:50;4.40;1.00
14749;DHT22;7466;53.574;9.976;2023-02-26T12:18:33;5.00;1.00
14749;DHT22;7466;53.574;9.976;2023-02-26T12:21:12;4.60;1.00
14749;DHT22;7466;53.574;9.976;2023-02-26T12:24:09;4.90;1.00
14749;DHT22;7466;53.574;9.976;2023-02-26T12:26:43;5.00;1.00
14749;DHT22;7466;53.574;9.976;2023-02-26T12:32:35;5.10;1.00
14749;DHT22;7466;53.574;9.976;2023-02-26T12:35:20;5.80;1.00
14749;DHT22;7466;53.574;9.976;2023-02-26T12:37:59;5.50;1.00
14749;DHT22;7466;53.574;9.976;2023-02-26T12:43:43;5.00;1.00
14749;DHT22;7466;53.574;9.976;2023-02-26T12:46:30;5.00;1.00
14749;DHT22;7466;53.574;9.976;2023-02-26T12:52:13;4.50;1.00
14749;DHT22;7466;53.574;9.976;2023-02-26T12:55:08;4.40;1.00
14749;DHT22;7466;53.574;9.976;2023-02-26T12:57:49;4.50;1.00
14749;DHT22;7466;53.574;9.976;2023-02-26T13:00:38;4.60;1.00
14749;DHT22;7466;53.574;9.976;2023-02-26T13:03:34;4.50;1.00
14749;DHT22;7466;53.574;9.976;2023-02-26T13:06:27;4.40;1.00
14749;DHT22;7466;53.574;9.976;2023-02-26T13:09:01;4.60;1.00
14749;DHT22;7466;53.574;9.976;2023-02-26T13:11:42;4.60;1.00
14749;DHT22;7466;53.574;9.976;2023-02-26T13:14:22;4.80;1.00
14749;DHT22;7466;53.574;9.976;2023-02-26T13:16:59;4.70;1.00
14749;DHT22;7466;53.574;9.976;2023-02-26T13:19:36;4.50;1.00
14749;DHT22;7466;53.574;9.976;2023-02-26T13:22:14;4.20;1.00
14749;DHT22;7466;53.574;9.976;2023-02-26T13:24:45;4.50;1.00
14749;DHT22;7466;53.574;9.976;2023-02-26T13:27:13;4.80;1.00
14749;DHT22;7466;53.574;9.976;2023-02-26T13:29:46;4.60;1.00
14749;DHT22;7466;53.574;9.976;2023-02-26T13:32:17;4.60;1.00
14749;DHT22;7466;53.574;9.976;2023-02-26T13:34:52;4.70;1.00
14749;DHT22;7466;53.574;9.976;2023-02-26T13:37:25;4.80;1.00
14749;DHT22;7466;53.574;9.976;2023-02-26T13:40:16;4.80;1.00
14749;DHT22;7466;53.574;9.976;2023-02-26T13:42:57;5.00;1.00
14749;DHT22;7466;53.574;9.976;2023-02-26T13:45:40;5.00;1.00
14749;DHT22;7466;53.574;9.976;2023-02-26T13:48:16;5.00;1.00
14749;DHT22;7466;53.574;9.976;2023-02-26T13:50:53;5.10;1.00
14749;DHT22;7466;53.574;9.976;2023-02-26T13:56:21;5.10;1.00
14749;DHT22;7466;53.574;9.976;2023-02-26T13:58:52;5.10;1.00
14749;DHT22;7466;53.574;9.976;2023-02-26T14:01:35;4.80;1.00
14749;DHT22;7466;53.574;9.976;2023-02-26T14:04:25;5.00;1.00
14749;DHT22;7466;53.574;9.976;2023-02-26T14:06:57;5.80;1.00
14749;DHT22;7466;53.574;9.976;2023-02-26T14:09:43;5.40;1.00
14749;DHT22;7466;53.574;9.976;2023-02-26T14:12:32;5.10;1.00
14749;DHT22;7466;53.574;9.976;2023-02-26T14:15:28;4.70;1.00
14749;DHT22;7466;53.574;9.976;2023-02-26T14:18:04;4.70;1.00
14749;DHT22;7466;53.574;9.976;2023-02-26T14:20:34;4.90;1.00
14749;DHT22;7466;53.574;9.976;2023-02-26T14:23:35;4.80;1.00
14749;DHT22;7466;53.574;9.976;2023-02-26T14:26:05;4.80;1.00
14749;DHT22;7466;53.574;9.976;2023-02-26T14:28:57;4.90;1.00
14749;DHT22;7466;53.574;9.976;2023-02-26T14:31:25;4.60;1.00
14749;DHT22;7466;53.574;9.976;2023-02-26T14:34:13;4.40;1.00
14749;DHT22;7466;53.574;9.976;2023-02-26T14:36:47;4.30;1.00
14749;DHT22;7466;53.574;9.976;2023-02-26T14:39:35;4.30;1.00
14749;DHT22;7466;53.574;9.976;2023-02-26T14:42:05;4.40;1.00
14749;DHT22;7466;53.574;9.976;2023-02-26T14:44:39;4.40;1.00
14749;DHT22;7466;53.574;9.976;2023-02-26T14:47:08;4.50;1.00
14749;DHT22;7466;53.574;9.976;2023-02-26T14:49:38;4.50;1.00
14749;DHT22;7466;53.574;9.976;2023-02-26T14:55:37;4.70;1.00
14749;DHT22;7466;53.574;9.976;2023-02-26T14:58:31;5.00;1.00
14749;DHT22;7466;53.574;9.976;2023-02-26T15:01:09;4.70;1.00
14749;DHT22;7466;53.574;9.976;2023-02-26T15:03:54;4.70;1.00
14749;DHT22;7466;53.574;9.976;2023-02-26T15:06:40;4.60;1.00
14749;DHT22;7466;53.574;9.976;2023-02-26T15:09:16;4.60;1.00
14749;DHT22;7466;53.574;9.976;2023-02-26T15:12:08;4.70;1.00
14749;DHT22;7466;53.574;9.976;2023-02-26T15:15:02;4.60;1.00
14749;DHT22;7466;53.574;9.976;2023-02-26T15:17:54;4.60;1.00
14749;DHT22;7466;53.574;9.976;2023-02-26T15:20:33;4.40;1.00
14749;DHT22;7466;53.574;9.976;2023-02-26T15:23:29;4.30;1.00
14749;DHT22;7466;53.574;9.976;2023-02-26T15:26:01;4.20;1.00
14749;DHT22;7466;53.574;9.976;2023-02-26T15:28:33;4.10;1.00
14749;DHT22;7466;53.574;9.976;2023-02-26T15:31:02;4.00;1.00
14749;DHT22;7466;53.574;9.976;2023-02-26T15:33:31;3.90;1.00
14749;DHT22;7466;53.574;9.976;2023-02-26T15:35:59;3.80;1.00
14749;DHT22;7466;53.574;9.976;2023-02-26T15:38:27;3.80;1.00
14749;DHT22;7466;53.574;9.976;2023-02-26T15:40:57;3.90;1.00
14749;DHT22;7466;53.574;9.976;2023-02-26T15:43:27;3.90;1.00
14749;DHT22;7466;53.574;9.976;2023-02-26T15:45:56;3.90;1.00
14749;DHT22;7466;53.574;9.976;2023-02-26T15:48:27;3.90;1.00
14749;DHT22;7466;53.574;9.976;2023-02-26T15:50:57;3.90;1.00
14749;DHT22;7466;53.574;9.976;2023-02-26T15:53:29;4.00;1.00
14749;DHT22;7466;53.574;9.976;2023-02-26T15:55:59;4.00;1.00
14749;DHT22;7466;53.574;9.976;2023-02-26T15:58:34;3.90;1.00
14749;DHT22;7466;53.574;9.976;2023-02-26T16:01:14;4.00;1.00
14749;DHT22;7466;53.574;9.976;2023-02-26T16:03:42;3.90;1.00
14749;DHT22;7466;53.574;9.976;2023-02-26T16:06:12;3.90;1.00
14749;DHT22;7466;53.574;9.976;2023-02-26T16:08:41;3.80;1.00
14749;DHT22;7466;53.574;9.976;2023-02-26T16:11:09;3.80;1.00
14749;DHT22;7466;53.574;9.976;2023-02-26T16:13:41;3.80;1.00
14749;DHT22;7466;53.574;9.976;2023-02-26T16:16:12;3.80;1.00
14749;DHT22;7466;53.574;9.976;2023-02-26T16:18:41;3.80;1.00
14749;DHT22;7466;53.574;9.976;2023-02-26T16:21:21;3.80;1.00
14749;DHT22;7466;53.574;9.976;2023-02-26T16:23:52;3.80;1.00
14749;DHT22;7466;53.574;9.976;2023-02-26T16:26:21;3.80;1.00
14749;DHT22;7466;53.574;9.976;2023-02-26T16:28:56;3.80;1.00
14749;DHT22;7466;53.574;9.976;2023-02-26T16:31:25;3.70;1.00
14749;DHT22;7466;53.574;9.976;2023-02-26T16:33:56;3.60;1.00
14749;DHT22;7466;53.574;9.976;2023-02-26T16:36:29;3.60;1.00
14749;DHT22;7466;53.574;9.976;2023-02-26T16:39:01;3.60;1.00
14749;DHT22;7466;53.574;9.976;2023-02-26T16:41:41;3.50;1.00
14749;DHT22;7466;53.574;9.976;2023-02-26T16:47:24;3.50;1.00
14749;DHT22;7466;53.574;9.976;2023-02-26T16:49:56;3.50;1.00
14749;DHT22;7466;53.574;9.976;2023-02-26T16:52:24;3.50;1.00
14749;DHT22;7466;53.574;9.976;2023-02-26T16:54:56;3.40;1.00